createdAt,value
2023-04-15T00:02:20.579Z,6.79
2023-04-15T00:04:54.303Z,6.70
2023-04-15T00:07:24.759Z,6.35
2023-04-15T00:09:58.806Z,6.20
2023-04-15T00:12:29.877Z,6.55
2023-04-15T00:14:58.918Z,6.73
2023-04-15T00:17:32.974Z,6.68
2023-04-15T00:20:03.148Z,6.81
2023-04-15T00:22:33.611Z,6.81
2023-04-15T00:25:02.237Z,6.83
2023-04-15T00:27:32.446Z,6.73
2023-04-15T00:30:02.913Z,6.73
2023-04-15T00:32:31.277Z,6.63
2023-04-15T00:35:04.949Z,6.55
2023-04-15T00:37:35.212Z,6.48
2023-04-15T00:40:12.955Z,6.21
2023-04-15T00:42:45.896Z,6.38
2023-04-15T00:45:24.198Z,6.41
2023-04-15T00:48:09.862Z,6.49
2023-04-15T00:50:48.330Z,6.61
2023-04-15T00:53:21.722Z,6.77
2023-04-15T00:56:07.657Z,6.45
2023-04-15T00:58:46.220Z,6.50
2023-04-15T01:01:15.468Z,6.77
2023-04-15T01:03:43.793Z,6.66
2023-04-15T01:06:12.686Z,6.49
2023-04-15T01:08:42.917Z,6.59
2023-04-15T01:11:13.766Z,6.81
2023-04-15T01:13:42.631Z,6.87
2023-04-15T01:16:10.922Z,6.70
2023-04-15T01:18:39.461Z,6.56
2023-04-15T01:21:08.639Z,6.65
2023-04-15T01:23:38.758Z,6.65
2023-04-15T01:26:09.377Z,6.77
2023-04-15T01:28:38.342Z,6.68
2023-04-15T01:31:08.909Z,6.65
2023-04-15T01:33:39.328Z,6.48
2023-04-15T01:36:10.482Z,6.44
2023-04-15T01:38:39.174Z,6.37
2023-04-15T01:41:08.721Z,6.38
2023-04-15T01:43:37.815Z,6.55
2023-04-15T01:46:06.306Z,6.52
2023-04-15T01:48:34.620Z,6.61
2023-04-15T01:51:05.416Z,6.57
2023-04-15T01:53:34.286Z,6.50
2023-04-15T01:56:03.432Z,6.59
2023-04-15T01:58:33.700Z,6.53
2023-04-15T02:01:03.265Z,6.38
2023-04-15T02:03:33.257Z,6.38
2023-04-15T02:06:01.289Z,6.29
2023-04-15T02:08:30.136Z,6.37
2023-04-15T02:10:58.090Z,6.32
2023-04-15T02:13:28.497Z,6.22
2023-04-15T02:16:00.572Z,6.14
2023-04-15T02:18:29.397Z,6.07
2023-04-15T02:20:58.690Z,5.97
2023-04-15T02:23:27.032Z,5.94
2023-04-15T02:25:55.644Z,5.93
2023-04-15T02:28:23.989Z,5.85
2023-04-15T02:30:53.465Z,5.96
2023-04-15T02:33:24.587Z,6.09
2023-04-15T02:35:53.282Z,6.14
2023-04-15T02:38:21.378Z,5.90
2023-04-15T02:40:52.085Z,5.75
2023-04-15T02:43:20.085Z,5.87
2023-04-15T02:45:48.469Z,5.75
2023-04-15T02:48:19.903Z,5.75
2023-04-15T02:50:49.354Z,5.92
2023-04-15T02:53:20.376Z,6.07
2023-04-15T02:55:48.297Z,6.03
2023-04-15T02:58:16.952Z,6.11
2023-04-15T03:00:44.940Z,6.09
2023-04-15T03:03:15.324Z,6.06
2023-04-15T03:05:44.616Z,6.11
2023-04-15T03:08:15.030Z,6.06
2023-04-15T03:10:46.172Z,5.97
2023-04-15T03:13:14.748Z,5.92
2023-04-15T03:15:43.217Z,6.04
2023-04-15T03:18:12.809Z,5.96
2023-04-15T03:20:41.981Z,5.97
2023-04-15T03:23:11.333Z,5.87
2023-04-15T03:25:42.266Z,5.92
2023-04-15T03:28:10.545Z,5.94
2023-04-15T03:30:41.087Z,6.07
2023-04-15T03:33:10.490Z,6.04
2023-04-15T03:35:40.603Z,6.14
2023-04-15T03:38:09.056Z,6.18
2023-04-15T03:40:38.969Z,6.13
2023-04-15T03:43:08.332Z,6.27
2023-04-15T03:45:37.210Z,6.16
2023-04-15T03:48:17.111Z,6.28
2023-04-15T03:50:47.238Z,6.31
2023-04-15T03:53:16.680Z,6.34
2023-04-15T03:55:46.018Z,6.29
2023-04-15T03:58:15.516Z,6.11
2023-04-15T04:00:46.722Z,6.09
2023-04-15T04:03:16.203Z,6.04
2023-04-15T04:05:45.522Z,6.04
2023-04-15T04:08:17.810Z,5.87
2023-04-15T04:10:46.185Z,5.76
2023-04-15T04:13:15.648Z,5.77
2023-04-15T04:15:46.927Z,5.79
2023-04-15T04:18:15.050Z,5.73
2023-04-15T04:20:43.328Z,5.75
2023-04-15T04:23:14.632Z,5.79
2023-04-15T04:25:46.322Z,5.85
2023-04-15T04:28:18.036Z,5.75
2023-04-15T04:30:49.272Z,5.76
2023-04-15T04:36:10.669Z,5.94
2023-04-15T04:38:48.364Z,5.99
2023-04-15T04:41:16.766Z,5.94
2023-04-15T04:43:47.860Z,5.92
2023-04-15T04:46:16.126Z,5.85
2023-04-15T04:48:47.256Z,5.92
2023-04-15T04:51:16.658Z,6.00
2023-04-15T04:53:44.854Z,5.93
2023-04-15T04:56:15.983Z,5.77
2023-04-15T04:58:47.493Z,5.85
2023-04-15T05:01:24.192Z,6.03
2023-04-15T05:03:53.900Z,5.92
2023-04-15T05:06:24.214Z,6.01
2023-04-15T05:09:07.413Z,6.11
2023-04-15T05:11:35.720Z,6.10
2023-04-15T05:14:05.893Z,6.11
2023-04-15T05:16:38.922Z,6.03
2023-04-15T05:19:12.158Z,6.10
2023-04-15T05:21:40.263Z,6.14
2023-04-15T05:24:08.368Z,6.22
2023-04-15T05:26:38.283Z,6.28
2023-04-15T05:29:09.303Z,6.34
2023-04-15T05:31:39.430Z,6.34
2023-04-15T05:34:13.296Z,6.39
2023-04-15T05:36:47.462Z,6.37
2023-04-15T05:39:17.329Z,6.45
2023-04-15T05:41:49.930Z,6.55
2023-04-15T05:44:19.546Z,6.65
2023-04-15T05:46:53.215Z,6.72
2023-04-15T05:49:21.434Z,6.80
2023-04-15T05:51:49.550Z,6.66
2023-04-15T05:54:20.493Z,6.59
2023-04-15T05:56:51.064Z,6.70
2023-04-15T05:59:22.738Z,6.87
2023-04-15T06:01:58.021Z,6.97
2023-04-15T06:04:30.358Z,7.07
2023-04-15T06:07:06.750Z,6.83
2023-04-15T06:09:41.042Z,7.15
2023-04-15T06:12:12.425Z,7.04
2023-04-15T06:14:53.112Z,7.01
2023-04-15T06:17:23.199Z,7.11
2023-04-15T06:19:56.506Z,7.29
2023-04-15T06:22:27.410Z,7.17
2023-04-15T06:24:57.386Z,7.34
2023-04-15T06:27:32.408Z,7.49
2023-04-15T06:30:11.461Z,7.46
2023-04-15T06:32:42.871Z,7.34
2023-04-15T06:35:13.880Z,7.53
2023-04-15T06:37:45.574Z,7.39
2023-04-15T06:40:16.753Z,7.35
2023-04-15T06:42:47.306Z,7.38
2023-04-15T06:45:18.570Z,7.39
2023-04-15T06:47:47.965Z,7.19
2023-04-15T06:50:20.602Z,7.19
2023-04-15T06:52:55.969Z,7.08
2023-04-15T06:55:31.981Z,7.05
2023-04-15T06:58:01.616Z,7.09
2023-04-15T07:00:33.755Z,7.07
2023-04-15T07:03:05.876Z,7.14
2023-04-15T07:05:37.101Z,7.03
2023-04-15T07:08:07.797Z,7.01
2023-04-15T07:10:44.407Z,6.83
2023-04-15T07:13:14.048Z,6.66
2023-04-15T07:15:43.407Z,6.87
2023-04-15T07:18:11.957Z,6.96
2023-04-15T07:20:55.232Z,6.93
2023-04-15T07:23:24.742Z,6.93
2023-04-15T07:26:00.969Z,7.03
2023-04-15T07:28:34.324Z,6.77
2023-04-15T07:31:09.924Z,6.86
2023-04-15T07:33:41.247Z,6.81
2023-04-15T07:36:12.563Z,6.89
2023-04-15T07:38:43.294Z,6.83
2023-04-15T07:41:26.344Z,6.90
2023-04-15T07:43:57.382Z,6.83
2023-04-15T07:46:29.178Z,6.83
2023-04-15T07:48:57.513Z,6.69
2023-04-15T07:51:27.228Z,6.73
2023-04-15T07:54:07.006Z,6.76
2023-04-15T07:56:40.074Z,6.87
2023-04-15T07:59:19.894Z,6.79
2023-04-15T08:01:52.698Z,6.98
2023-04-15T08:04:23.500Z,6.98
2023-04-15T08:06:53.576Z,6.90
2023-04-15T08:09:22.558Z,6.96
2023-04-15T08:11:55.377Z,6.65
2023-04-15T08:14:23.480Z,6.86
2023-04-15T08:16:56.652Z,6.86
2023-04-15T08:19:24.740Z,6.90
2023-04-15T08:21:52.827Z,6.87
2023-04-15T08:24:22.107Z,6.87
2023-04-15T08:26:52.240Z,6.94
2023-04-15T08:29:23.209Z,6.97
2023-04-15T08:31:54.075Z,7.01
2023-04-15T08:34:25.608Z,7.24
2023-04-15T08:36:53.744Z,7.32
2023-04-15T08:39:22.566Z,7.45
2023-04-15T08:41:57.182Z,7.35
2023-04-15T08:44:26.141Z,7.15
2023-04-15T08:46:57.890Z,7.43
2023-04-15T08:49:28.572Z,7.39
2023-04-15T08:51:59.197Z,7.32
2023-04-15T08:54:28.228Z,7.32
2023-04-15T08:56:59.012Z,7.42
2023-04-15T08:59:27.847Z,7.55
2023-04-15T09:01:58.427Z,7.80
2023-04-15T09:04:26.828Z,7.81
2023-04-15T09:06:55.171Z,7.60
2023-04-15T09:09:23.214Z,7.56
2023-04-15T09:11:51.627Z,7.74
2023-04-15T09:14:20.546Z,7.88
2023-04-15T09:17:00.859Z,7.77
2023-04-15T09:19:30.466Z,7.93
2023-04-15T09:21:59.660Z,7.77
2023-04-15T09:24:38.827Z,7.60
2023-04-15T09:27:07.260Z,7.70
2023-04-15T09:29:37.096Z,7.84
2023-04-15T09:32:15.296Z,7.88
2023-04-15T09:34:44.759Z,7.88
2023-04-15T09:37:31.232Z,7.93
2023-04-15T09:40:00.964Z,7.94
2023-04-15T09:42:29.634Z,7.90
2023-04-15T09:44:57.957Z,7.83
2023-04-15T09:47:32.828Z,7.97
2023-04-15T09:50:02.955Z,7.98
2023-04-15T09:52:31.172Z,7.86
2023-04-15T09:55:00.145Z,7.84
2023-04-15T09:57:39.073Z,7.90
2023-04-15T10:00:12.769Z,8.02
2023-04-15T10:02:49.918Z,7.86
2023-04-15T10:05:33.886Z,7.95
2023-04-15T10:08:12.764Z,7.88
2023-04-15T10:19:23.958Z,7.98
2023-04-15T10:21:55.496Z,7.95
2023-04-15T10:24:29.203Z,7.84
2023-04-15T10:27:11.039Z,7.94
2023-04-15T10:30:32.445Z,8.04
2023-04-15T10:33:04.949Z,8.04
2023-04-15T10:36:05.226Z,8.01
2023-04-15T10:38:47.180Z,8.02
2023-04-15T10:50:02.004Z,8.01
2023-04-15T10:53:40.916Z,8.14
2023-04-15T10:57:02.668Z,8.09
2023-04-15T10:59:31.743Z,7.97
2023-04-15T11:02:34.610Z,8.14
2023-04-15T11:23:58.263Z,8.24
2023-04-15T11:26:27.779Z,8.38
2023-04-15T11:28:56.124Z,8.35
2023-04-15T11:31:24.490Z,8.32
2023-04-15T11:33:56.969Z,8.39
2023-04-15T11:36:27.660Z,8.35
2023-04-15T11:38:57.132Z,8.24
2023-04-15T11:41:25.925Z,8.21
2023-04-15T11:43:54.763Z,8.24
2023-04-15T11:46:23.041Z,8.16
2023-04-15T11:48:51.150Z,8.21
2023-04-15T11:51:20.930Z,8.26
2023-04-15T11:53:50.501Z,8.31
2023-04-15T11:56:21.527Z,8.32
2023-04-15T11:58:50.941Z,8.29
2023-04-15T12:01:19.439Z,8.29
2023-04-15T12:03:49.242Z,8.40
2023-04-15T12:06:19.624Z,8.36
2023-04-15T12:09:12.329Z,8.42
2023-04-15T12:11:44.394Z,8.40
2023-04-15T12:14:23.558Z,8.46
2023-04-15T12:16:58.417Z,8.46
2023-04-15T12:19:28.722Z,8.46
2023-04-15T12:22:01.002Z,8.39
2023-04-15T12:24:33.434Z,8.33
2023-04-15T12:27:05.642Z,8.33
2023-04-15T12:29:35.782Z,8.36
2023-04-15T12:32:07.752Z,8.52
2023-04-15T12:34:37.491Z,8.42
2023-04-15T12:37:07.158Z,8.46
2023-04-15T12:39:38.139Z,8.39
2023-04-15T12:42:08.350Z,8.43
2023-04-15T12:44:37.723Z,8.40
2023-04-15T12:47:06.021Z,8.42
2023-04-15T12:49:34.712Z,8.46
2023-04-15T12:52:03.943Z,8.40
2023-04-15T12:54:33.012Z,8.32
2023-04-15T12:57:01.359Z,8.42
2023-04-15T12:59:31.272Z,8.45
2023-04-15T13:02:00.830Z,8.43
2023-04-15T13:04:31.493Z,8.39
2023-04-15T13:07:00.421Z,8.36
2023-04-15T13:09:28.455Z,8.43
2023-04-15T13:12:01.387Z,8.36
2023-04-15T13:14:31.215Z,8.36
2023-04-15T13:16:59.284Z,8.39
2023-04-15T13:19:28.142Z,8.39
2023-04-15T13:21:56.278Z,8.50
2023-04-15T13:24:24.259Z,8.42
2023-04-15T13:26:54.264Z,8.38
2023-04-15T13:29:22.288Z,8.32
2023-04-15T13:31:52.934Z,8.39
2023-04-15T13:34:21.050Z,8.43
2023-04-15T13:36:49.056Z,8.31
2023-04-15T13:39:17.432Z,8.38
2023-04-15T13:41:46.431Z,8.50
2023-04-15T13:44:14.642Z,8.54
2023-04-15T13:46:43.095Z,8.54
2023-04-15T13:49:12.536Z,8.42
2023-04-15T13:51:40.856Z,8.47
2023-04-15T13:54:09.086Z,8.42
2023-04-15T13:56:37.335Z,8.43
2023-04-15T13:59:06.653Z,8.36
2023-04-15T14:01:36.021Z,8.52
2023-04-15T14:04:04.762Z,8.40
2023-04-15T14:06:34.568Z,8.53
2023-04-15T14:09:02.740Z,8.36
2023-04-15T14:11:32.554Z,8.35
2023-04-15T14:14:00.453Z,8.36
2023-04-15T14:16:28.484Z,8.31
2023-04-15T14:18:56.702Z,8.36
2023-04-15T14:21:24.704Z,8.53
2023-04-15T14:23:54.033Z,8.33
2023-04-15T14:26:22.614Z,8.45
2023-04-15T14:28:50.809Z,8.46
2023-04-15T14:31:20.403Z,8.40
2023-04-15T14:33:48.441Z,8.43
2023-04-15T14:36:16.961Z,8.54
2023-04-15T14:38:46.494Z,8.47
2023-04-15T14:41:17.564Z,8.43
2023-04-15T14:43:46.144Z,8.60
2023-04-15T14:46:14.904Z,8.73
2023-04-15T14:48:44.028Z,8.83
2023-04-15T14:51:13.602Z,8.60
2023-04-15T14:53:41.694Z,8.53
2023-04-15T14:56:10.526Z,8.59
2023-04-15T14:58:40.597Z,8.63
2023-04-15T15:01:09.408Z,8.70
2023-04-15T15:03:38.980Z,8.73
2023-04-15T15:06:08.726Z,8.57
2023-04-15T15:08:37.195Z,8.64
2023-04-15T15:11:06.124Z,8.54
2023-04-15T15:13:35.232Z,8.66
2023-04-15T15:16:05.614Z,8.63
2023-04-15T15:18:34.857Z,8.64
2023-04-15T15:21:05.774Z,8.73
2023-04-15T15:23:35.776Z,8.78
2023-04-15T15:26:04.017Z,8.80
2023-04-15T15:28:33.763Z,8.77
2023-04-15T15:31:01.933Z,8.66
2023-04-15T15:33:33.420Z,8.67
2023-04-15T15:36:02.996Z,8.83
2023-04-15T15:38:31.676Z,8.74
2023-04-15T15:41:00.074Z,8.87
2023-04-15T15:43:28.544Z,8.88
2023-04-15T15:45:56.502Z,8.83
2023-04-15T15:48:26.063Z,8.98
2023-04-15T15:50:56.610Z,8.95
2023-04-15T15:53:26.483Z,8.94
2023-04-15T15:55:54.646Z,8.87
2023-04-15T15:58:24.389Z,8.91
2023-04-15T16:00:52.971Z,8.88
2023-04-15T16:03:21.100Z,8.91
2023-04-15T16:05:56.188Z,8.97
2023-04-15T16:08:24.311Z,9.01
2023-04-15T16:10:52.675Z,9.07
2023-04-15T16:13:21.559Z,8.91
2023-04-15T16:15:50.078Z,8.97
2023-04-15T16:18:18.525Z,9.01
2023-04-15T16:20:51.513Z,9.01
2023-04-15T16:23:21.193Z,8.95
2023-04-15T16:25:52.358Z,8.98
2023-04-15T16:28:26.285Z,9.07
2023-04-15T16:30:56.652Z,9.05
2023-04-15T16:33:24.609Z,9.09
2023-04-15T16:35:52.832Z,9.18
2023-04-15T16:38:22.668Z,9.12
2023-04-15T16:40:51.528Z,9.11
2023-04-15T16:43:20.108Z,9.19
2023-04-15T16:45:51.684Z,9.11
2023-04-15T16:48:21.814Z,9.14
2023-04-15T16:50:49.951Z,9.12
2023-04-15T16:53:18.737Z,9.08
2023-04-15T16:55:48.537Z,9.09
2023-04-15T16:58:16.519Z,9.05
2023-04-15T17:00:45.112Z,9.11
2023-04-15T17:03:13.612Z,9.02
2023-04-15T17:05:42.384Z,9.05
2023-04-15T17:08:10.905Z,8.97
2023-04-15T17:10:39.108Z,8.95
2023-04-15T17:13:08.637Z,8.95
2023-04-15T17:15:41.202Z,9.01
2023-04-15T17:18:10.768Z,9.01
2023-04-15T17:20:40.470Z,9.02
2023-04-15T17:23:08.495Z,9.11
2023-04-15T17:25:36.468Z,9.12
2023-04-15T17:28:05.352Z,9.07
2023-04-15T17:30:35.096Z,9.08
2023-04-15T17:33:03.707Z,9.11
2023-04-15T17:35:52.215Z,9.08
2023-04-15T17:38:20.120Z,9.11
2023-04-15T17:40:48.564Z,9.16
2023-04-15T17:43:16.996Z,9.07
2023-04-15T17:45:47.310Z,9.16
2023-04-15T17:48:15.940Z,9.11
2023-04-15T17:50:44.373Z,9.11
2023-04-15T17:53:12.340Z,9.09
2023-04-15T17:55:40.307Z,9.09
2023-04-15T17:58:09.307Z,9.08
2023-04-15T18:00:37.242Z,9.12
2023-04-15T18:03:08.894Z,9.12
2023-04-15T18:05:37.478Z,9.15
2023-04-15T18:08:06.961Z,8.95
2023-04-15T18:10:35.561Z,9.02
2023-04-15T18:13:04.124Z,9.07
2023-04-15T18:15:32.471Z,9.14
2023-04-15T18:18:00.920Z,9.12
2023-04-15T18:20:31.731Z,8.97
2023-04-15T18:22:59.681Z,9.07
2023-04-15T18:25:27.770Z,9.08
2023-04-15T18:27:56.717Z,9.15
2023-04-15T18:30:24.839Z,9.11
2023-04-15T18:32:52.867Z,9.11
2023-04-15T18:35:21.675Z,9.04
2023-04-15T18:37:51.128Z,8.88
2023-04-15T18:40:19.766Z,8.98
2023-04-15T18:42:48.365Z,8.95
2023-04-15T18:45:16.604Z,9.00
2023-04-15T18:47:44.578Z,9.08
2023-04-15T18:50:14.639Z,9.01
2023-04-15T18:52:42.588Z,8.89
2023-04-15T18:55:12.344Z,8.98
2023-04-15T18:57:43.007Z,8.97
2023-04-15T19:00:14.072Z,8.94
2023-04-15T19:02:43.362Z,8.94
2023-04-15T19:05:11.706Z,8.87
2023-04-15T19:07:43.845Z,8.88
2023-04-15T19:10:17.922Z,8.97
2023-04-15T19:12:47.337Z,8.87
2023-04-15T19:15:25.763Z,8.80
2023-04-15T19:17:56.617Z,8.85
2023-04-15T19:20:34.854Z,8.85
2023-04-15T19:23:05.262Z,8.78
2023-04-15T19:25:35.529Z,8.88
2023-04-15T19:28:03.508Z,8.88
2023-04-15T19:30:33.024Z,8.92
2023-04-15T19:33:01.669Z,8.88
2023-04-15T19:35:30.284Z,8.89
2023-04-15T19:37:58.354Z,8.88
2023-04-15T19:40:26.384Z,8.89
2023-04-15T19:42:56.978Z,8.89
2023-04-15T19:45:24.759Z,8.87
2023-04-15T19:47:54.505Z,8.85
2023-04-15T19:50:26.913Z,8.83
2023-04-15T19:52:55.037Z,8.85
2023-04-15T19:55:22.988Z,8.94
2023-04-15T19:57:52.267Z,8.91
2023-04-15T20:00:21.935Z,8.92
2023-04-15T20:02:50.672Z,8.81
2023-04-15T20:05:19.382Z,8.78
2023-04-15T20:07:48.799Z,8.88
2023-04-15T20:10:17.768Z,8.91
2023-04-15T20:12:50.108Z,8.89
2023-04-15T20:15:24.252Z,8.97
2023-04-15T20:17:52.448Z,8.89
2023-04-15T20:20:29.173Z,8.91
2023-04-15T20:22:59.122Z,9.04
2023-04-15T20:25:33.082Z,9.15
2023-04-15T20:28:01.339Z,9.07
2023-04-15T20:30:40.234Z,9.07
2023-04-15T20:33:10.534Z,8.98
2023-04-15T20:35:40.002Z,8.94
2023-04-15T20:38:08.332Z,8.98
2023-04-15T20:40:36.443Z,8.87
2023-04-15T20:43:04.367Z,8.94
2023-04-15T20:45:34.746Z,9.01
2023-04-15T20:48:02.707Z,9.05
2023-04-15T20:50:31.237Z,9.04
2023-04-15T20:53:00.322Z,9.07
2023-04-15T20:55:30.675Z,9.09
2023-04-15T20:58:00.937Z,9.14
2023-04-15T21:00:29.821Z,9.08
2023-04-15T21:02:59.197Z,9.11
2023-04-15T21:05:28.085Z,9.12
2023-04-15T21:07:56.029Z,9.15
2023-04-15T21:10:26.271Z,9.19
2023-04-15T21:12:55.765Z,9.14
2023-04-15T21:15:23.994Z,9.22
2023-04-15T21:17:54.272Z,9.28
2023-04-15T21:20:26.679Z,9.19
2023-04-15T21:22:54.901Z,9.22
2023-04-15T21:25:23.428Z,9.11
2023-04-15T21:27:51.521Z,9.15
2023-04-15T21:30:19.380Z,9.16
2023-04-15T21:32:48.433Z,9.18
2023-04-15T21:35:16.456Z,9.14
2023-04-15T21:37:47.507Z,9.16
2023-04-15T21:40:19.489Z,9.19
2023-04-15T21:42:48.881Z,9.23
2023-04-15T21:45:17.792Z,9.29
2023-04-15T21:48:00.513Z,9.28
2023-04-15T21:50:34.654Z,9.29
2023-04-15T21:53:04.469Z,9.32
2023-04-15T21:55:32.412Z,9.32
2023-04-15T21:58:00.426Z,9.32
2023-04-15T22:00:29.752Z,9.36
2023-04-15T22:03:04.232Z,9.29
2023-04-15T22:05:33.832Z,9.32
2023-04-15T22:08:04.733Z,9.29
2023-04-15T22:10:39.090Z,9.36
2023-04-15T22:13:11.071Z,9.30
2023-04-15T22:15:41.152Z,9.37
2023-04-15T22:18:08.910Z,9.33
2023-04-15T22:20:40.076Z,9.39
2023-04-15T22:23:12.274Z,9.39
2023-04-15T22:25:40.495Z,9.37
2023-04-15T22:28:17.116Z,9.40
2023-04-15T22:30:45.117Z,9.36
2023-04-15T22:33:13.240Z,9.30
2023-04-15T22:35:42.876Z,9.40
2023-04-15T22:38:12.469Z,9.36
2023-04-15T22:40:47.371Z,9.28
2023-04-15T22:43:18.538Z,9.35
2023-04-15T22:45:51.862Z,9.42
2023-04-15T22:48:22.888Z,9.35
2023-04-15T22:50:53.836Z,9.40
2023-04-15T22:53:23.272Z,9.35
2023-04-15T22:55:55.559Z,9.44
2023-04-15T22:58:25.268Z,9.46
2023-04-15T23:00:53.546Z,9.44
2023-04-15T23:03:24.512Z,9.42
2023-04-15T23:05:57.638Z,9.37
2023-04-15T23:08:30.723Z,9.32
2023-04-15T23:10:58.768Z,9.37
2023-04-15T23:13:31.658Z,9.40
2023-04-15T23:16:01.171Z,9.42
2023-04-15T23:18:31.315Z,9.43
2023-04-15T23:21:00.133Z,9.39
2023-04-15T23:23:30.064Z,9.43
2023-04-15T23:25:58.066Z,9.48
2023-04-15T23:28:31.294Z,9.50
2023-04-15T23:31:02.093Z,9.42
2023-04-15T23:33:30.188Z,9.54
2023-04-15T23:36:00.047Z,9.44
2023-04-15T23:38:32.096Z,9.53
2023-04-15T23:41:03.667Z,9.47
2023-04-15T23:43:34.100Z,9.44
2023-04-15T23:46:02.122Z,9.53
2023-04-15T23:48:30.812Z,9.51
2023-04-15T23:50:59.067Z,9.65
2023-04-15T23:53:27.379Z,9.47
2023-04-15T23:56:02.982Z,9.43
2023-04-15T23:58:33.991Z,9.40
